createdAt,value
2022-08-23T00:01:40.443Z,99910.53
2022-08-23T00:04:12.310Z,99914.50
2022-08-23T00:06:40.370Z,99910.53
2022-08-23T00:09:11.070Z,99916.16
2022-08-23T00:11:42.056Z,99918.78
2022-08-23T00:14:12.597Z,99914.84
2022-08-23T00:16:42.588Z,99911.88
2022-08-23T00:19:13.251Z,99907.25
2022-08-23T00:21:42.554Z,99909.91
2022-08-23T00:24:14.142Z,99908.06
2022-08-23T00:26:57.606Z,99907.69
2022-08-23T00:29:28.424Z,99909.13
2022-08-23T00:31:56.809Z,99903.69
2022-08-23T00:34:25.374Z,99899.22
2022-08-23T00:36:53.413Z,99895.72
2022-08-23T00:39:23.082Z,99897.22
2022-08-23T00:41:52.025Z,99895.03
2022-08-23T00:44:42.640Z,99896.50
2022-08-23T00:47:31.259Z,99886.38
2022-08-23T00:50:19.317Z,99889.47
2022-08-23T00:53:03.669Z,99899.97
2022-08-23T00:55:35.243Z,99892.88
2022-08-23T00:58:04.286Z,99889.41
2022-08-23T01:00:35.119Z,99896.63
2022-08-23T01:03:07.152Z,99900.63
2022-08-23T01:05:47.743Z,99904.91
2022-08-23T01:08:15.980Z,99910.56
2022-08-23T01:10:52.746Z,99908.09
2022-08-23T01:13:31.308Z,99903.16
2022-08-23T01:16:03.842Z,99910.56
2022-08-23T01:18:33.270Z,99911.38
2022-08-23T01:21:10.578Z,99912.22
2022-08-23T01:23:46.490Z,99913.56
2022-08-23T01:26:21.658Z,99910.94
2022-08-23T01:28:52.166Z,99911.28
2022-08-23T01:31:22.333Z,99907.53
2022-08-23T01:34:00.173Z,99913.91
2022-08-23T01:36:29.168Z,99915.69
2022-08-23T01:38:59.318Z,99917.78
2022-08-23T01:41:27.535Z,99920.59
2022-08-23T01:43:56.115Z,99917.13
2022-08-23T01:46:30.113Z,99914.66
2022-08-23T01:48:58.652Z,99908.13
2022-08-23T01:51:30.761Z,99908.44
2022-08-23T01:54:01.193Z,99910.41
2022-08-23T01:56:39.291Z,99908.97
2022-08-23T01:59:13.955Z,99910.75
2022-08-23T02:01:47.558Z,99921.28
2022-08-23T02:04:16.846Z,99917.38
2022-08-23T02:06:45.142Z,99919.66
2022-08-23T02:09:18.965Z,99919.28
2022-08-23T02:11:48.761Z,99919.56
2022-08-23T02:14:20.413Z,99918.88
2022-08-23T02:17:04.460Z,99919.34
2022-08-23T02:19:35.021Z,99918.38
2022-08-23T02:22:05.298Z,99921.09
2022-08-23T02:24:35.667Z,99931.00
2022-08-23T02:27:06.272Z,99918.81
2022-08-23T02:29:39.374Z,99921.81
2022-08-23T02:32:11.010Z,99934.28
2022-08-23T02:34:41.451Z,99930.94
2022-08-23T02:37:13.104Z,99928.47
2022-08-23T02:39:44.383Z,99927.34
2022-08-23T02:42:14.552Z,99937.84
2022-08-23T02:44:44.856Z,99934.69
2022-08-23T02:47:12.892Z,99935.63
2022-08-23T02:49:46.194Z,99943.03
2022-08-23T02:52:14.432Z,99943.34
2022-08-23T02:54:45.461Z,99936.59
2022-08-23T02:57:13.393Z,99945.66
2022-08-23T02:59:42.145Z,99940.72
2022-08-23T03:02:10.298Z,99942.69
2022-08-23T03:04:42.732Z,99938.69
2022-08-23T03:07:10.883Z,99943.50
2022-08-23T03:09:39.595Z,99941.47
2022-08-23T03:12:10.941Z,99951.22
2022-08-23T03:14:44.803Z,99943.44
2022-08-23T03:17:14.602Z,99946.63
2022-08-23T03:19:42.566Z,99947.03
2022-08-23T03:22:11.216Z,99942.81
2022-08-23T03:24:39.430Z,99941.00
2022-08-23T03:27:09.348Z,99945.19
2022-08-23T03:29:38.741Z,99930.97
2022-08-23T03:32:07.398Z,99948.53
2022-08-23T03:34:40.621Z,99942.94
2022-08-23T03:37:10.529Z,99937.38
2022-08-23T03:39:39.097Z,99948.81
2022-08-23T03:42:09.554Z,99949.34
2022-08-23T03:44:38.020Z,99940.00
2022-08-23T03:47:07.267Z,99954.22
2022-08-23T03:49:36.369Z,99945.44
2022-08-23T03:52:05.880Z,99957.53
2022-08-23T03:54:34.171Z,99952.72
2022-08-23T03:57:08.614Z,99961.59
2022-08-23T03:59:40.647Z,99963.97
2022-08-23T04:02:11.183Z,99970.63
2022-08-23T04:04:40.799Z,99964.47
2022-08-23T04:07:28.190Z,99963.03
2022-08-23T04:09:59.348Z,99974.91
2022-08-23T04:12:32.827Z,99970.66
2022-08-23T04:15:02.769Z,99972.63
2022-08-23T04:17:34.400Z,99980.19
2022-08-23T04:20:03.724Z,99971.91
2022-08-23T04:22:34.903Z,99975.09
2022-08-23T04:25:03.658Z,99973.28
2022-08-23T04:27:33.106Z,99978.00
2022-08-23T04:30:02.687Z,99978.00
2022-08-23T04:32:31.276Z,99978.53
2022-08-23T04:35:03.250Z,99980.28
2022-08-23T04:37:31.674Z,99987.97
2022-08-23T04:40:17.215Z,99989.22
2022-08-23T04:42:45.503Z,99991.72
2022-08-23T04:45:16.108Z,99996.97
2022-08-23T04:47:48.079Z,99995.25
2022-08-23T04:50:17.151Z,100001.06
2022-08-23T04:53:11.899Z,100001.00
2022-08-23T04:55:52.505Z,99996.03
2022-08-23T04:58:21.354Z,100006.84
2022-08-23T05:00:53.092Z,100007.88
2022-08-23T05:03:27.133Z,100012.09
2022-08-23T05:05:58.268Z,100010.69
2022-08-23T05:08:33.189Z,100005.50
2022-08-23T05:11:05.099Z,100009.47
2022-08-23T05:13:36.764Z,100017.78
2022-08-23T05:16:09.926Z,100022.25
2022-08-23T05:18:43.895Z,100013.28
2022-08-23T05:21:16.069Z,100017.13
2022-08-23T05:23:45.477Z,100028.13
2022-08-23T05:26:23.239Z,100022.22
2022-08-23T05:28:51.858Z,100038.59
2022-08-23T05:31:29.532Z,100037.47
2022-08-23T05:34:03.877Z,100048.97
2022-08-23T05:36:55.972Z,100049.63
2022-08-23T05:39:37.023Z,100052.22
2022-08-23T05:42:08.993Z,100061.72
2022-08-23T05:44:38.024Z,100058.25
2022-08-23T05:47:15.089Z,100064.47
2022-08-23T05:50:02.987Z,100064.31
2022-08-23T05:52:35.453Z,100069.41
2022-08-23T05:55:03.876Z,100071.94
2022-08-23T05:58:04.525Z,100083.00
2022-08-23T06:00:40.412Z,100070.28
2022-08-23T06:03:11.669Z,100077.53
2022-08-23T06:05:41.849Z,100086.81
2022-08-23T06:08:11.767Z,100079.75
2022-08-23T06:10:42.371Z,100082.03
2022-08-23T06:13:34.336Z,100074.28
2022-08-23T06:16:14.154Z,100085.31
2022-08-23T06:18:46.623Z,100088.53
2022-08-23T06:21:40.806Z,100093.88
2022-08-23T06:24:09.420Z,100102.31
2022-08-23T06:26:45.906Z,100104.56
2022-08-23T06:29:16.587Z,100096.94
2022-08-23T06:31:49.377Z,100100.69
2022-08-23T06:34:33.490Z,100101.66
2022-08-23T06:37:22.036Z,100102.00
2022-08-23T06:40:04.977Z,100101.75
2022-08-23T06:42:59.720Z,100107.22
2022-08-23T06:45:39.852Z,100106.34
2022-08-23T06:48:09.735Z,100103.34
2022-08-23T06:50:39.257Z,100098.41
2022-08-23T06:53:30.533Z,100107.56
2022-08-23T06:56:11.750Z,100108.22
2022-08-23T06:59:05.951Z,100109.84
2022-08-23T07:01:55.300Z,100108.47
2022-08-23T07:04:43.868Z,100114.28
2022-08-23T07:07:43.911Z,100110.75
2022-08-23T07:10:15.139Z,100119.69
2022-08-23T07:12:44.063Z,100120.78
2022-08-23T07:15:14.322Z,100122.22
2022-08-23T07:17:47.378Z,100128.38
2022-08-23T07:20:15.972Z,100132.78
2022-08-23T07:22:47.272Z,100127.78
2022-08-23T07:25:15.562Z,100132.72
2022-08-23T07:27:48.951Z,100138.16
2022-08-23T07:30:20.421Z,100149.38
2022-08-23T07:32:49.157Z,100143.94
2022-08-23T07:35:25.016Z,100139.16
2022-08-23T07:37:58.507Z,100140.81
2022-08-23T07:40:39.195Z,100144.84
2022-08-23T07:43:13.178Z,100150.41
2022-08-23T07:45:49.020Z,100157.47
2022-08-23T07:48:32.009Z,100153.66
2022-08-23T07:51:15.061Z,100157.63
2022-08-23T07:53:46.135Z,100156.94
2022-08-23T07:56:18.716Z,100161.88
2022-08-23T07:59:16.831Z,100164.63
2022-08-23T08:01:56.796Z,100162.66
2022-08-23T08:04:26.089Z,100157.91
2022-08-23T08:07:16.806Z,100158.75
2022-08-23T08:09:47.372Z,100163.22
2022-08-23T08:12:18.239Z,100164.94
2022-08-23T08:14:49.369Z,100169.03
2022-08-23T08:17:23.114Z,100166.22
2022-08-23T08:20:13.512Z,100165.66
2022-08-23T08:22:58.549Z,100168.91
2022-08-23T08:25:49.152Z,100168.44
2022-08-23T08:28:20.442Z,100175.97
2022-08-23T08:30:48.819Z,100171.06
2022-08-23T08:33:17.308Z,100177.09
2022-08-23T08:35:57.795Z,100184.44
2022-08-23T08:38:30.591Z,100175.88
2022-08-23T08:41:10.646Z,100174.00
2022-08-23T08:43:53.926Z,100171.69
2022-08-23T08:46:29.715Z,100177.72
2022-08-23T08:49:04.832Z,100176.03
2022-08-23T08:51:47.402Z,100186.22
2022-08-23T08:54:27.274Z,100194.06
2022-08-23T08:57:01.301Z,100194.44
2022-08-23T08:59:43.862Z,100197.31
2022-08-23T09:02:31.911Z,100187.50
2022-08-23T09:05:11.038Z,100189.41
2022-08-23T09:07:51.713Z,100190.69
2022-08-23T09:10:41.245Z,100189.44
2022-08-23T09:13:34.879Z,100189.28
2022-08-23T09:16:13.632Z,100185.88
2022-08-23T09:18:41.798Z,100187.88
2022-08-23T09:21:12.195Z,100188.94
2022-08-23T09:23:44.200Z,100183.44
2022-08-23T09:26:23.303Z,100176.41
2022-08-23T09:28:54.986Z,100178.94
2022-08-23T09:31:41.999Z,100174.34
2022-08-23T09:34:19.440Z,100176.63
2022-08-23T09:37:12.606Z,100172.94
2022-08-23T09:39:43.625Z,100158.31
2022-08-23T09:42:29.745Z,100160.44
2022-08-23T09:45:01.339Z,100164.25
2022-08-23T09:47:35.806Z,100155.31
2022-08-23T09:50:24.360Z,100160.50
2022-08-23T09:52:57.459Z,100149.03
2022-08-23T09:55:33.242Z,100152.34
2022-08-23T09:58:02.871Z,100145.88
2022-08-23T10:00:35.779Z,100146.78
2022-08-23T10:03:23.494Z,100156.63
2022-08-23T10:05:57.078Z,100151.53
2022-08-23T10:08:32.848Z,100153.03
2022-08-23T10:11:09.151Z,100155.22
2022-08-23T10:13:38.105Z,100153.38
2022-08-23T10:16:18.225Z,100162.41
2022-08-23T10:19:05.407Z,100151.59
2022-08-23T10:21:42.722Z,100146.94
2022-08-23T10:24:19.824Z,100149.47
2022-08-23T10:27:01.454Z,100154.25
2022-08-23T10:29:37.475Z,100146.56
2022-08-23T10:32:19.128Z,100142.44
2022-08-23T10:35:06.495Z,100134.56
2022-08-23T10:37:56.938Z,100115.72
2022-08-23T10:40:29.708Z,100118.13
2022-08-23T10:43:13.887Z,100127.75
2022-08-23T10:45:45.836Z,100141.81
2022-08-23T10:48:31.928Z,100146.75
2022-08-23T10:51:03.888Z,100159.13
2022-08-23T10:53:38.596Z,100159.63
2022-08-23T10:56:08.222Z,100156.59
2022-08-23T10:58:49.344Z,100139.28
2022-08-23T11:01:24.415Z,100127.13
2022-08-23T11:04:03.796Z,100125.72
2022-08-23T11:06:51.107Z,100137.09
2022-08-23T11:09:52.760Z,100136.16
2022-08-23T11:12:32.133Z,100141.16
2022-08-23T11:15:11.850Z,100145.34
2022-08-23T11:17:57.046Z,100145.66
2022-08-23T11:21:09.023Z,100130.88
2022-08-23T11:23:55.340Z,100146.56
2022-08-23T11:27:07.526Z,100138.22
2022-08-23T11:29:44.300Z,100124.56
2022-08-23T11:32:46.698Z,100133.09
2022-08-23T11:35:43.336Z,100125.31
2022-08-23T11:38:17.301Z,100118.78
2022-08-23T11:41:01.129Z,100125.47
2022-08-23T11:43:40.134Z,100144.44
2022-08-23T11:46:28.061Z,100143.16
2022-08-23T11:49:26.110Z,100136.50
2022-08-23T11:52:04.182Z,100129.03
2022-08-23T11:54:47.474Z,100131.06
2022-08-23T12:28:07.551Z,100114.56
2022-08-23T12:30:44.443Z,100091.25
2022-08-23T12:33:22.989Z,100102.16
2022-08-23T12:35:55.721Z,100103.66
2022-08-23T12:38:36.690Z,100086.84
2022-08-23T12:41:18.865Z,100069.75
2022-08-23T12:43:59.251Z,100066.91
2022-08-23T12:46:39.593Z,100065.25
2022-08-23T12:49:13.285Z,100052.94
2022-08-23T12:51:49.650Z,100055.84
2022-08-23T12:54:22.542Z,100064.50
2022-08-23T12:56:53.347Z,100065.47
2022-08-23T12:59:43.570Z,100063.09
2022-08-23T13:02:16.336Z,100062.63
2022-08-23T13:04:44.246Z,100068.25
2022-08-23T13:07:16.453Z,100059.59
2022-08-23T13:09:53.947Z,100075.00
2022-08-23T13:12:24.644Z,100059.78
2022-08-23T13:14:55.524Z,100050.38
2022-08-23T13:17:33.676Z,100044.88
2022-08-23T13:20:21.919Z,100043.72
2022-08-23T13:23:00.241Z,100046.91
2022-08-23T13:25:32.317Z,100041.34
2022-08-23T13:28:02.359Z,100057.47
2022-08-23T13:30:33.907Z,100051.53
2022-08-23T13:33:24.202Z,100042.69
2022-08-23T13:36:12.944Z,100042.53
2022-08-23T13:38:43.813Z,100048.78
2022-08-23T13:41:27.601Z,100045.88
2022-08-23T13:43:55.951Z,100048.75
2022-08-23T13:46:27.574Z,100042.69
2022-08-23T13:49:01.496Z,100030.81
2022-08-23T13:51:36.782Z,100045.69
2022-08-23T13:54:08.679Z,100047.50
2022-08-23T13:56:39.311Z,100046.94
2022-08-23T13:59:20.587Z,100037.34
2022-08-23T14:01:49.889Z,100035.22
2022-08-23T14:04:17.682Z,100040.00
2022-08-23T14:06:49.030Z,100025.44
2022-08-23T14:09:17.428Z,100025.38
2022-08-23T14:11:46.223Z,100035.78
2022-08-23T14:14:14.116Z,100046.09
2022-08-23T14:16:42.789Z,100045.16
2022-08-23T14:19:19.141Z,100050.50
2022-08-23T14:22:05.833Z,100058.50
2022-08-23T14:24:34.124Z,100026.66
2022-08-23T14:27:02.542Z,100017.13
2022-08-23T14:29:30.715Z,100028.97
2022-08-23T14:32:00.294Z,100010.28
2022-08-23T14:34:31.288Z,100012.06
2022-08-23T14:39:48.186Z,100017.56
2022-08-23T14:42:20.575Z,100011.19
2022-08-23T14:44:48.603Z,100020.91
2022-08-23T14:47:17.471Z,100013.94
2022-08-23T14:49:51.997Z,100016.63
2022-08-23T14:52:23.176Z,100015.31
2022-08-23T14:54:51.569Z,100016.75
2022-08-23T14:57:19.435Z,100031.81
2022-08-23T14:59:47.567Z,100047.00
2022-08-23T15:02:21.925Z,100047.22
2022-08-23T15:04:52.136Z,100044.75
2022-08-23T15:07:20.115Z,100051.63
2022-08-23T15:09:49.245Z,100049.25
2022-08-23T15:15:09.410Z,100051.66
2022-08-23T15:17:48.273Z,100032.72
2022-08-23T15:20:18.205Z,100039.09
2022-08-23T15:22:55.300Z,100039.47
2022-08-23T15:25:25.482Z,100042.97
2022-08-23T15:27:53.766Z,100017.56
2022-08-23T15:30:22.899Z,100005.63
2022-08-23T15:33:03.662Z,99991.88
2022-08-23T15:35:37.787Z,99995.09
2022-08-23T15:38:08.054Z,100002.50
2022-08-23T15:40:36.582Z,99991.41
2022-08-23T15:43:04.869Z,100002.69
2022-08-23T15:45:34.421Z,100003.94
2022-08-23T15:48:16.603Z,100002.50
2022-08-23T15:50:47.518Z,100012.38
2022-08-23T15:53:17.237Z,100018.91
2022-08-23T15:55:46.853Z,100015.78
2022-08-23T15:58:17.662Z,100011.19
2022-08-23T16:00:45.887Z,100022.34
2022-08-23T16:03:18.649Z,100027.72
2022-08-23T16:05:53.588Z,100027.38
2022-08-23T16:08:26.252Z,100029.31
2022-08-23T16:10:55.047Z,100012.13
2022-08-23T16:13:23.306Z,100008.56
2022-08-23T16:15:52.330Z,100017.75
2022-08-23T16:18:20.640Z,100016.50
2022-08-23T16:20:54.531Z,100004.88
2022-08-23T16:23:23.299Z,100002.69
2022-08-23T16:25:51.669Z,99990.63
2022-08-23T16:28:19.616Z,99993.63
2022-08-23T16:30:47.954Z,99981.03
2022-08-23T16:33:16.479Z,99979.59
2022-08-23T16:35:44.489Z,99975.31
2022-08-23T16:38:13.978Z,99973.59
2022-08-23T16:40:41.948Z,99979.84
2022-08-23T16:43:10.051Z,99976.69
2022-08-23T16:45:37.911Z,99984.78
2022-08-23T16:48:06.255Z,99987.09
2022-08-23T16:50:34.567Z,99985.78
2022-08-23T16:53:07.273Z,99989.19
2022-08-23T16:55:38.164Z,99998.38
2022-08-23T16:58:07.803Z,99998.66
2022-08-23T17:00:36.695Z,99996.19
2022-08-23T17:03:05.863Z,99993.25
2022-08-23T17:05:35.947Z,99991.88
2022-08-23T17:08:05.111Z,99989.63
2022-08-23T17:10:33.652Z,99988.84
2022-08-23T17:13:03.860Z,99986.94
2022-08-23T17:15:33.975Z,99987.47
2022-08-23T17:18:02.043Z,99992.56
2022-08-23T17:20:32.714Z,99987.78
2022-08-23T17:23:01.029Z,99990.66
2022-08-23T17:25:34.475Z,99995.25
2022-08-23T17:28:05.081Z,99993.88
2022-08-23T17:30:34.512Z,99991.03
2022-08-23T17:33:02.879Z,99994.91
2022-08-23T17:35:33.662Z,99994.00
2022-08-23T17:38:04.720Z,99996.66
2022-08-23T17:40:36.343Z,100000.94
2022-08-23T17:43:06.487Z,100003.66
2022-08-23T17:45:42.637Z,100000.19
2022-08-23T17:48:11.448Z,99986.31
2022-08-23T17:50:39.565Z,99995.72
2022-08-23T17:53:07.913Z,99996.81
2022-08-23T17:55:37.629Z,99999.88
2022-08-23T17:58:07.710Z,99997.53
2022-08-23T18:00:37.576Z,100004.75
2022-08-23T18:03:06.410Z,100000.66
2022-08-23T18:05:35.944Z,99996.06
2022-08-23T18:08:04.436Z,100002.03
2022-08-23T18:10:32.474Z,100004.56
2022-08-23T18:13:00.947Z,100003.91
2022-08-23T18:15:31.684Z,100012.03
2022-08-23T18:18:01.131Z,100016.50
2022-08-23T18:20:29.993Z,100005.69
2022-08-23T18:22:59.777Z,100021.94
2022-08-23T18:25:27.981Z,100011.94
2022-08-23T18:28:06.898Z,100017.75
2022-08-23T18:30:38.903Z,100025.34
2022-08-23T18:33:12.491Z,100028.22
2022-08-23T18:35:41.175Z,100028.06
2022-08-23T18:38:09.727Z,100030.22
2022-08-23T18:40:45.257Z,100042.97
2022-08-23T18:43:15.073Z,100032.53
2022-08-23T18:45:45.341Z,100040.75
2022-08-23T18:48:13.673Z,100039.34
2022-08-23T18:50:42.997Z,100039.59
2022-08-23T18:53:12.540Z,100043.72
2022-08-23T18:55:42.308Z,100049.47
2022-08-23T18:58:10.548Z,100050.13
2022-08-23T19:00:39.782Z,100051.75
2022-08-23T19:03:11.038Z,100053.38
2022-08-23T19:05:42.238Z,100064.03
2022-08-23T19:08:13.478Z,100059.88
2022-08-23T19:10:43.924Z,100072.53
2022-08-23T19:13:13.069Z,100062.91
2022-08-23T19:15:42.010Z,100069.03
2022-08-23T19:18:11.174Z,100075.31
2022-08-23T19:20:39.115Z,100079.78
2022-08-23T19:23:07.615Z,100078.84
2022-08-23T19:25:38.428Z,100079.00
2022-08-23T19:28:07.056Z,100081.16
2022-08-23T19:30:35.326Z,100075.75
2022-08-23T19:33:04.796Z,100082.34
2022-08-23T19:35:34.841Z,100079.84
2022-08-23T19:38:03.191Z,100086.53
2022-08-23T19:40:31.364Z,100087.38
2022-08-23T19:43:00.589Z,100077.13
2022-08-23T19:45:32.025Z,100087.56
2022-08-23T19:48:00.548Z,100084.44
2022-08-23T19:50:29.567Z,100090.31
2022-08-23T19:52:59.540Z,100087.19
2022-08-23T19:55:29.180Z,100094.34
2022-08-23T19:57:58.294Z,100095.25
2022-08-23T20:00:28.735Z,100091.63
2022-08-23T20:02:57.076Z,100087.16
2022-08-23T20:05:27.329Z,100098.06
2022-08-23T20:07:55.685Z,100102.69
2022-08-23T20:10:25.448Z,100103.19
2022-08-23T20:12:54.017Z,100100.06
2022-08-23T20:15:22.312Z,100105.84
2022-08-23T20:17:50.410Z,100100.56
2022-08-23T20:20:20.746Z,100113.97
2022-08-23T20:23:06.039Z,100108.03
2022-08-23T20:25:36.716Z,100106.56
2022-08-23T20:28:08.295Z,100109.09
2022-08-23T20:30:37.685Z,100106.75
2022-08-23T20:33:05.582Z,100105.09
2022-08-23T20:35:35.267Z,100111.84
2022-08-23T20:38:04.519Z,100109.31
2022-08-23T20:40:32.731Z,100106.72
2022-08-23T20:43:02.674Z,100102.25
2022-08-23T20:45:31.156Z,100111.22
2022-08-23T20:47:59.544Z,100111.28
2022-08-23T20:50:27.442Z,100100.44
2022-08-23T20:52:56.607Z,100098.78
2022-08-23T20:55:25.167Z,100107.00
2022-08-23T20:57:54.776Z,100104.25
2022-08-23T21:00:24.506Z,100109.59
2022-08-23T21:02:53.351Z,100119.22
2022-08-23T21:05:21.363Z,100109.63
2022-08-23T21:07:50.095Z,100119.47
2022-08-23T21:10:19.763Z,100110.78
2022-08-23T21:12:48.441Z,100113.53
2022-08-23T21:15:16.250Z,100119.31
2022-08-23T21:17:47.673Z,100124.31
2022-08-23T21:20:15.686Z,100116.19
2022-08-23T21:22:43.991Z,100125.91
2022-08-23T21:25:12.463Z,100125.41
2022-08-23T21:27:40.675Z,100123.19
2022-08-23T21:30:10.442Z,100126.31
2022-08-23T21:32:38.841Z,100128.47
2022-08-23T21:35:09.563Z,100125.41
2022-08-23T21:37:37.431Z,100130.03
2022-08-23T21:40:07.548Z,100128.56
2022-08-23T21:42:35.736Z,100132.88
2022-08-23T21:45:04.511Z,100124.81
2022-08-23T21:47:32.315Z,100133.56
2022-08-23T21:50:00.344Z,100126.97
2022-08-23T21:52:30.239Z,100124.63
2022-08-23T21:54:58.251Z,100123.16
2022-08-23T21:57:26.310Z,100127.66
2022-08-23T21:59:54.319Z,100128.06
2022-08-23T22:02:22.740Z,100128.00
2022-08-23T22:04:50.729Z,100130.66
2022-08-23T22:07:18.588Z,100130.81
2022-08-23T22:09:48.642Z,100131.25
2022-08-23T22:12:16.993Z,100128.75
2022-08-23T22:14:45.572Z,100139.88
2022-08-23T22:17:15.225Z,100127.47
2022-08-23T22:19:43.131Z,100129.72
2022-08-23T22:22:11.439Z,100139.91
2022-08-23T22:24:39.483Z,100135.72
2022-08-23T22:27:09.163Z,100140.94
2022-08-23T22:29:37.729Z,100147.94
2022-08-23T22:32:06.080Z,100147.03
2022-08-23T22:34:35.569Z,100154.47
2022-08-23T22:37:03.458Z,100142.09
2022-08-23T22:39:31.676Z,100153.00
2022-08-23T22:41:59.539Z,100150.22
2022-08-23T22:44:29.669Z,100148.41
2022-08-23T22:46:57.957Z,100140.78
2022-08-23T22:49:26.271Z,100144.59
2022-08-23T22:51:55.466Z,100140.94
2022-08-23T22:54:24.750Z,100149.03
2022-08-23T22:56:54.355Z,100145.91
2022-08-23T22:59:27.522Z,100145.25
2022-08-23T23:02:04.248Z,100151.19
2022-08-23T23:04:34.240Z,100146.06
2022-08-23T23:07:03.122Z,100150.84
2022-08-23T23:09:30.905Z,100153.97
2022-08-23T23:11:58.985Z,100157.78
2022-08-23T23:14:27.439Z,100158.59
2022-08-23T23:16:55.446Z,100160.41
2022-08-23T23:19:42.891Z,100160.59
2022-08-23T23:22:13.725Z,100165.56
2022-08-23T23:24:41.890Z,100158.13
2022-08-23T23:27:10.125Z,100166.38
2022-08-23T23:29:38.462Z,100167.06
2022-08-23T23:32:06.744Z,100173.78
2022-08-23T23:34:38.078Z,100171.16
2022-08-23T23:37:05.906Z,100172.00
2022-08-23T23:39:34.703Z,100174.47
2022-08-23T23:42:02.708Z,100173.13
2022-08-23T23:44:31.637Z,100171.81
2022-08-23T23:47:01.819Z,100179.44
2022-08-23T23:49:33.138Z,100182.22
2022-08-23T23:52:04.238Z,100172.00
2022-08-23T23:54:33.829Z,100176.41
2022-08-23T23:57:02.261Z,100168.09
2022-08-23T23:59:30.257Z,100180.28
